sensor_id;sensor_type;location;lat;lon;timestamp;temperature;humidity
35603;DHT22;21725;50.836;4.368;2022-11-20T00:01:49;7.40;99.90
35603;DHT22;21725;50.836;4.368;2022-11-20T00:04:14;7.60;99.90
35603;DHT22;21725;50.836;4.368;2022-11-20T00:06:40;7.50;99.90
35603;DHT22;21725;50.836;4.368;2022-11-20T00:09:06;7.70;99.90
35603;DHT22;21725;50.836;4.368;2022-11-20T00:11:32;7.60;99.90
35603;DHT22;21725;50.836;4.368;2022-11-20T00:14:00;7.70;99.90
35603;DHT22;21725;50.836;4.368;2022-11-20T00:16:29;7.80;99.90
35603;DHT22;21725;50.836;4.368;2022-11-20T00:18:55;8.20;99.90
35603;DHT22;21725;50.836;4.368;2022-11-20T00:21:22;8.10;99.90
35603;DHT22;21725;50.836;4.368;2022-11-20T00:23:49;8.00;99.90
35603;DHT22;21725;50.836;4.368;2022-11-20T00:26:17;7.90;99.90
35603;DHT22;21725;50.836;4.368;2022-11-20T00:28:53;7.80;99.90
35603;DHT22;21725;50.836;4.368;2022-11-20T00:31:20;7.80;99.90
35603;DHT22;21725;50.836;4.368;2022-11-20T00:33:46;8.30;99.90
35603;DHT22;21725;50.836;4.368;2022-11-20T00:36:14;7.70;99.90
35603;DHT22;21725;50.836;4.368;2022-11-20T00:38:41;7.90;99.90
35603;DHT22;21725;50.836;4.368;2022-11-20T00:41:09;7.20;99.90
35603;DHT22;21725;50.836;4.368;2022-11-20T00:43:35;7.50;99.90
35603;DHT22;21725;50.836;4.368;2022-11-20T00:46:04;7.80;99.90
35603;DHT22;21725;50.836;4.368;2022-11-20T00:48:30;7.40;99.90
35603;DHT22;21725;50.836;4.368;2022-11-20T00:50:56;7.30;99.90
35603;DHT22;21725;50.836;4.368;2022-11-20T00:53:22;7.40;99.90
35603;DHT22;21725;50.836;4.368;2022-11-20T00:56:03;7.50;99.90
35603;DHT22;21725;50.836;4.368;2022-11-20T00:58:32;7.50;99.90
35603;DHT22;21725;50.836;4.368;2022-11-20T01:01:11;7.50;99.90
35603;DHT22;21725;50.836;4.368;2022-11-20T01:03:39;7.60;99.90
35603;DHT22;21725;50.836;4.368;2022-11-20T01:06:30;7.70;99.90
35603;DHT22;21725;50.836;4.368;2022-11-20T01:08:59;7.60;99.90
35603;DHT22;21725;50.836;4.368;2022-11-20T01:11:27;7.60;99.90
35603;DHT22;21725;50.836;4.368;2022-11-20T01:13:54;7.80;99.90
35603;DHT22;21725;50.836;4.368;2022-11-20T01:16:29;8.00;99.90
35603;DHT22;21725;50.836;4.368;2022-11-20T01:18:57;7.90;99.90
35603;DHT22;21725;50.836;4.368;2022-11-20T01:21:26;7.80;99.90
35603;DHT22;21725;50.836;4.368;2022-11-20T01:23:52;7.90;99.90
35603;DHT22;21725;50.836;4.368;2022-11-20T01:26:24;8.00;99.90
35603;DHT22;21725;50.836;4.368;2022-11-20T01:28:51;8.60;99.90
35603;DHT22;21725;50.836;4.368;2022-11-20T01:31:21;8.00;99.90
35603;DHT22;21725;50.836;4.368;2022-11-20T01:33:49;8.30;99.90
35603;DHT22;21725;50.836;4.368;2022-11-20T01:36:17;8.10;99.90
35603;DHT22;21725;50.836;4.368;2022-11-20T01:38:44;8.60;99.90
35603;DHT22;21725;50.836;4.368;2022-11-20T01:41:11;8.60;99.90
35603;DHT22;21725;50.836;4.368;2022-11-20T01:43:59;8.70;99.90
35603;DHT22;21725;50.836;4.368;2022-11-20T01:46:25;8.10;99.90
35603;DHT22;21725;50.836;4.368;2022-11-20T01:48:56;8.90;99.90
35603;DHT22;21725;50.836;4.368;2022-11-20T01:54:25;8.80;99.90
35603;DHT22;21725;50.836;4.368;2022-11-20T01:56:56;8.80;99.90
35603;DHT22;21725;50.836;4.368;2022-11-20T01:59:24;8.80;99.90
35603;DHT22;21725;50.836;4.368;2022-11-20T02:01:51;9.00;99.90
35603;DHT22;21725;50.836;4.368;2022-11-20T02:04:18;9.00;99.90
35603;DHT22;21725;50.836;4.368;2022-11-20T02:06:47;8.80;99.90
35603;DHT22;21725;50.836;4.368;2022-11-20T02:09:14;8.80;99.90
35603;DHT22;21725;50.836;4.368;2022-11-20T02:11:43;8.80;99.90
35603;DHT22;21725;50.836;4.368;2022-11-20T02:14:09;8.80;99.90
35603;DHT22;21725;50.836;4.368;2022-11-20T02:16:37;9.00;99.90
35603;DHT22;21725;50.836;4.368;2022-11-20T02:19:09;9.00;99.90
35603;DHT22;21725;50.836;4.368;2022-11-20T02:21:53;9.00;99.90
35603;DHT22;21725;50.836;4.368;2022-11-20T02:24:22;8.70;99.90
35603;DHT22;21725;50.836;4.368;2022-11-20T02:26:52;8.50;99.90
35603;DHT22;21725;50.836;4.368;2022-11-20T02:29:28;8.30;99.90
35603;DHT22;21725;50.836;4.368;2022-11-20T02:31:58;8.20;99.90
35603;DHT22;21725;50.836;4.368;2022-11-20T02:34:24;8.10;99.90
35603;DHT22;21725;50.836;4.368;2022-11-20T02:36:51;8.40;99.90
35603;DHT22;21725;50.836;4.368;2022-11-20T02:39:19;8.10;99.90
35603;DHT22;21725;50.836;4.368;2022-11-20T02:41:46;8.20;99.90
35603;DHT22;21725;50.836;4.368;2022-11-20T02:44:12;8.00;99.90
35603;DHT22;21725;50.836;4.368;2022-11-20T02:46:37;8.20;99.90
35603;DHT22;21725;50.836;4.368;2022-11-20T02:49:04;8.10;99.90
35603;DHT22;21725;50.836;4.368;2022-11-20T02:51:30;8.30;99.90
35603;DHT22;21725;50.836;4.368;2022-11-20T02:53:56;8.00;99.90
35603;DHT22;21725;50.836;4.368;2022-11-20T02:56:22;7.90;99.90
35603;DHT22;21725;50.836;4.368;2022-11-20T02:58:48;8.10;99.90
35603;DHT22;21725;50.836;4.368;2022-11-20T03:01:14;8.00;99.90
35603;DHT22;21725;50.836;4.368;2022-11-20T03:03:40;8.10;99.90
35603;DHT22;21725;50.836;4.368;2022-11-20T03:06:06;8.20;99.90
35603;DHT22;21725;50.836;4.368;2022-11-20T03:08:32;8.30;99.90
35603;DHT22;21725;50.836;4.368;2022-11-20T03:11:05;8.30;99.90
35603;DHT22;21725;50.836;4.368;2022-11-20T03:13:31;8.50;99.90
35603;DHT22;21725;50.836;4.368;2022-11-20T03:15:57;8.40;99.90
35603;DHT22;21725;50.836;4.368;2022-11-20T03:18:22;8.50;99.90
35603;DHT22;21725;50.836;4.368;2022-11-20T03:20:48;8.60;99.90
35603;DHT22;21725;50.836;4.368;2022-11-20T03:23:14;8.60;99.90
35603;DHT22;21725;50.836;4.368;2022-11-20T03:25:40;7.90;99.90
35603;DHT22;21725;50.836;4.368;2022-11-20T03:28:05;8.80;99.90
35603;DHT22;21725;50.836;4.368;2022-11-20T03:30:31;8.90;99.90
35603;DHT22;21725;50.836;4.368;2022-11-20T03:32:57;8.70;99.90
35603;DHT22;21725;50.836;4.368;2022-11-20T03:35:22;8.60;99.90
35603;DHT22;21725;50.836;4.368;2022-11-20T03:37:48;8.70;99.90
35603;DHT22;21725;50.836;4.368;2022-11-20T03:40:14;8.70;99.90
35603;DHT22;21725;50.836;4.368;2022-11-20T03:42:39;8.60;99.90
35603;DHT22;21725;50.836;4.368;2022-11-20T03:45:14;8.90;99.90
35603;DHT22;21725;50.836;4.368;2022-11-20T03:47:41;8.70;99.90
35603;DHT22;21725;50.836;4.368;2022-11-20T03:50:08;8.70;99.90
35603;DHT22;21725;50.836;4.368;2022-11-20T03:52:34;8.70;99.90
35603;DHT22;21725;50.836;4.368;2022-11-20T03:55:00;8.80;99.90
35603;DHT22;21725;50.836;4.368;2022-11-20T03:57:25;8.80;99.90
35603;DHT22;21725;50.836;4.368;2022-11-20T03:59:51;8.70;99.90
35603;DHT22;21725;50.836;4.368;2022-11-20T04:02:17;8.90;99.90
35603;DHT22;21725;50.836;4.368;2022-11-20T04:04:43;8.70;99.90
35603;DHT22;21725;50.836;4.368;2022-11-20T04:07:08;8.90;99.90
35603;DHT22;21725;50.836;4.368;2022-11-20T04:09:34;8.80;99.90
35603;DHT22;21725;50.836;4.368;2022-11-20T04:12:00;8.80;99.90
35603;DHT22;21725;50.836;4.368;2022-11-20T04:14:25;8.90;99.90
35603;DHT22;21725;50.836;4.368;2022-11-20T04:16:51;8.70;99.90
35603;DHT22;21725;50.836;4.368;2022-11-20T04:19:17;9.00;99.90
35603;DHT22;21725;50.836;4.368;2022-11-20T04:21:43;9.10;99.90
35603;DHT22;21725;50.836;4.368;2022-11-20T04:24:09;9.00;99.90
35603;DHT22;21725;50.836;4.368;2022-11-20T04:26:38;9.20;99.90
35603;DHT22;21725;50.836;4.368;2022-11-20T04:29:04;8.80;99.90
35603;DHT22;21725;50.836;4.368;2022-11-20T04:31:33;9.00;99.90
35603;DHT22;21725;50.836;4.368;2022-11-20T04:34:03;9.00;99.90
35603;DHT22;21725;50.836;4.368;2022-11-20T04:36:30;8.90;99.90
35603;DHT22;21725;50.836;4.368;2022-11-20T04:39:01;8.30;99.90
35603;DHT22;21725;50.836;4.368;2022-11-20T04:41:30;8.90;99.90
35603;DHT22;21725;50.836;4.368;2022-11-20T04:43:58;9.00;99.90
35603;DHT22;21725;50.836;4.368;2022-11-20T04:46:34;9.10;99.90
35603;DHT22;21725;50.836;4.368;2022-11-20T04:49:00;9.10;99.90
35603;DHT22;21725;50.836;4.368;2022-11-20T04:51:26;9.00;99.90
35603;DHT22;21725;50.836;4.368;2022-11-20T04:53:53;9.00;99.90
35603;DHT22;21725;50.836;4.368;2022-11-20T04:56:18;9.00;99.90
35603;DHT22;21725;50.836;4.368;2022-11-20T04:58:44;9.10;99.90
35603;DHT22;21725;50.836;4.368;2022-11-20T05:01:16;9.20;99.90
35603;DHT22;21725;50.836;4.368;2022-11-20T05:25:35;6.00;99.90
35603;DHT22;21725;50.836;4.368;2022-11-20T05:28:00;5.90;99.90
35603;DHT22;21725;50.836;4.368;2022-11-20T05:30:26;6.30;99.90
35603;DHT22;21725;50.836;4.368;2022-11-20T05:32:52;6.80;99.90
35603;DHT22;21725;50.836;4.368;2022-11-20T05:35:17;7.40;99.90
35603;DHT22;21725;50.836;4.368;2022-11-20T05:37:43;7.90;99.90
35603;DHT22;21725;50.836;4.368;2022-11-20T05:40:09;8.20;99.90
35603;DHT22;21725;50.836;4.368;2022-11-20T05:42:35;8.30;99.90
35603;DHT22;21725;50.836;4.368;2022-11-20T05:45:03;8.60;99.90
35603;DHT22;21725;50.836;4.368;2022-11-20T05:47:33;8.60;99.90
35603;DHT22;21725;50.836;4.368;2022-11-20T05:50:00;9.10;99.90
35603;DHT22;21725;50.836;4.368;2022-11-20T05:52:28;9.00;99.90
35603;DHT22;21725;50.836;4.368;2022-11-20T05:54:54;9.20;99.90
35603;DHT22;21725;50.836;4.368;2022-11-20T05:57:20;9.20;99.90
35603;DHT22;21725;50.836;4.368;2022-11-20T05:59:45;9.20;99.90
35603;DHT22;21725;50.836;4.368;2022-11-20T06:02:11;9.10;99.90
35603;DHT22;21725;50.836;4.368;2022-11-20T06:04:37;9.00;99.90
35603;DHT22;21725;50.836;4.368;2022-11-20T06:07:04;8.90;99.90
35603;DHT22;21725;50.836;4.368;2022-11-20T06:09:29;8.90;99.90
35603;DHT22;21725;50.836;4.368;2022-11-20T06:11:55;9.10;99.90
35603;DHT22;21725;50.836;4.368;2022-11-20T06:14:21;9.10;99.90
35603;DHT22;21725;50.836;4.368;2022-11-20T06:16:47;9.00;99.90
35603;DHT22;21725;50.836;4.368;2022-11-20T06:19:12;8.90;99.90
35603;DHT22;21725;50.836;4.368;2022-11-20T06:21:38;8.90;99.90
35603;DHT22;21725;50.836;4.368;2022-11-20T06:24:04;9.10;99.90
35603;DHT22;21725;50.836;4.368;2022-11-20T06:26:30;9.10;99.90
35603;DHT22;21725;50.836;4.368;2022-11-20T06:28:56;9.20;99.90
35603;DHT22;21725;50.836;4.368;2022-11-20T06:31:23;9.10;99.90
35603;DHT22;21725;50.836;4.368;2022-11-20T06:33:50;9.20;99.90
35603;DHT22;21725;50.836;4.368;2022-11-20T06:36:19;9.00;99.90
35603;DHT22;21725;50.836;4.368;2022-11-20T06:38:45;9.00;99.90
35603;DHT22;21725;50.836;4.368;2022-11-20T06:41:13;9.40;99.90
35603;DHT22;21725;50.836;4.368;2022-11-20T06:43:39;9.40;99.90
35603;DHT22;21725;50.836;4.368;2022-11-20T06:46:05;9.20;99.90
35603;DHT22;21725;50.836;4.368;2022-11-20T06:48:31;9.40;99.90
35603;DHT22;21725;50.836;4.368;2022-11-20T06:50:57;9.60;99.90
35603;DHT22;21725;50.836;4.368;2022-11-20T06:53:23;9.40;99.90
35603;DHT22;21725;50.836;4.368;2022-11-20T06:55:50;9.60;99.90
35603;DHT22;21725;50.836;4.368;2022-11-20T06:58:17;9.80;99.90
35603;DHT22;21725;50.836;4.368;2022-11-20T07:00:44;9.80;99.90
35603;DHT22;21725;50.836;4.368;2022-11-20T07:03:11;9.70;99.90
35603;DHT22;21725;50.836;4.368;2022-11-20T07:05:37;9.40;99.90
35603;DHT22;21725;50.836;4.368;2022-11-20T07:08:04;9.40;99.90
35603;DHT22;21725;50.836;4.368;2022-11-20T07:10:30;9.20;99.90
35603;DHT22;21725;50.836;4.368;2022-11-20T07:12:56;9.30;99.90
35603;DHT22;21725;50.836;4.368;2022-11-20T07:15:23;9.30;99.90
35603;DHT22;21725;50.836;4.368;2022-11-20T07:17:49;9.50;99.90
35603;DHT22;21725;50.836;4.368;2022-11-20T07:20:15;9.30;99.90
35603;DHT22;21725;50.836;4.368;2022-11-20T07:22:41;9.10;99.90
35603;DHT22;21725;50.836;4.368;2022-11-20T07:25:07;9.40;99.90
35603;DHT22;21725;50.836;4.368;2022-11-20T07:27:33;9.40;99.90
35603;DHT22;21725;50.836;4.368;2022-11-20T07:29:59;9.50;99.90
35603;DHT22;21725;50.836;4.368;2022-11-20T07:32:25;9.90;99.90
35603;DHT22;21725;50.836;4.368;2022-11-20T07:34:51;9.70;99.90
35603;DHT22;21725;50.836;4.368;2022-11-20T07:37:18;9.70;99.90
35603;DHT22;21725;50.836;4.368;2022-11-20T07:39:43;9.50;99.90
35603;DHT22;21725;50.836;4.368;2022-11-20T07:42:09;9.70;99.90
35603;DHT22;21725;50.836;4.368;2022-11-20T07:44:35;9.70;99.90
35603;DHT22;21725;50.836;4.368;2022-11-20T07:47:01;9.80;99.90
35603;DHT22;21725;50.836;4.368;2022-11-20T07:49:27;10.00;99.90
35603;DHT22;21725;50.836;4.368;2022-11-20T07:51:54;9.80;99.90
35603;DHT22;21725;50.836;4.368;2022-11-20T07:54:22;9.80;99.90
35603;DHT22;21725;50.836;4.368;2022-11-20T07:56:48;9.70;99.90
35603;DHT22;21725;50.836;4.368;2022-11-20T07:59:15;10.00;99.90
35603;DHT22;21725;50.836;4.368;2022-11-20T08:01:41;10.80;99.90
35603;DHT22;21725;50.836;4.368;2022-11-20T08:04:08;9.70;99.90
35603;DHT22;21725;50.836;4.368;2022-11-20T08:06:34;9.80;99.90
35603;DHT22;21725;50.836;4.368;2022-11-20T08:08:59;10.10;99.90
35603;DHT22;21725;50.836;4.368;2022-11-20T08:11:25;9.70;99.90
35603;DHT22;21725;50.836;4.368;2022-11-20T08:14:09;9.80;99.90
35603;DHT22;21725;50.836;4.368;2022-11-20T08:16:45;10.00;99.90
35603;DHT22;21725;50.836;4.368;2022-11-20T08:19:12;10.10;99.90
35603;DHT22;21725;50.836;4.368;2022-11-20T08:21:38;9.90;99.90
35603;DHT22;21725;50.836;4.368;2022-11-20T08:24:04;9.80;99.90
35603;DHT22;21725;50.836;4.368;2022-11-20T08:26:30;10.10;99.90
35603;DHT22;21725;50.836;4.368;2022-11-20T08:29:03;10.40;99.90
35603;DHT22;21725;50.836;4.368;2022-11-20T08:31:29;10.30;99.90
35603;DHT22;21725;50.836;4.368;2022-11-20T08:33:55;10.50;99.90
35603;DHT22;21725;50.836;4.368;2022-11-20T08:36:21;10.30;99.90
35603;DHT22;21725;50.836;4.368;2022-11-20T08:38:49;10.20;99.90
35603;DHT22;21725;50.836;4.368;2022-11-20T08:41:14;10.40;99.90
35603;DHT22;21725;50.836;4.368;2022-11-20T08:43:58;10.30;99.90
35603;DHT22;21725;50.836;4.368;2022-11-20T08:46:25;10.40;99.90
35603;DHT22;21725;50.836;4.368;2022-11-20T08:48:52;10.40;99.90
35603;DHT22;21725;50.836;4.368;2022-11-20T08:51:18;10.50;99.90
35603;DHT22;21725;50.836;4.368;2022-11-20T08:53:45;10.40;99.90
35603;DHT22;21725;50.836;4.368;2022-11-20T08:56:11;11.10;99.90
35603;DHT22;21725;50.836;4.368;2022-11-20T08:58:38;10.40;99.90
35603;DHT22;21725;50.836;4.368;2022-11-20T09:01:04;10.60;99.90
35603;DHT22;21725;50.836;4.368;2022-11-20T09:03:30;10.90;99.90
35603;DHT22;21725;50.836;4.368;2022-11-20T09:06:06;10.80;99.90
35603;DHT22;21725;50.836;4.368;2022-11-20T09:08:32;10.80;99.90
35603;DHT22;21725;50.836;4.368;2022-11-20T09:10:59;10.90;99.90
35603;DHT22;21725;50.836;4.368;2022-11-20T09:13:26;10.90;99.90
35603;DHT22;21725;50.836;4.368;2022-11-20T09:16:00;11.00;99.90
35603;DHT22;21725;50.836;4.368;2022-11-20T09:18:27;10.90;99.90
35603;DHT22;21725;50.836;4.368;2022-11-20T09:20:58;10.90;99.90
35603;DHT22;21725;50.836;4.368;2022-11-20T09:23:24;10.80;99.90
35603;DHT22;21725;50.836;4.368;2022-11-20T09:25:49;10.70;99.90
35603;DHT22;21725;50.836;4.368;2022-11-20T09:28:15;10.80;99.90
35603;DHT22;21725;50.836;4.368;2022-11-20T09:30:44;10.90;99.90
35603;DHT22;21725;50.836;4.368;2022-11-20T09:33:10;11.00;99.90
35603;DHT22;21725;50.836;4.368;2022-11-20T09:35:35;10.90;99.90
35603;DHT22;21725;50.836;4.368;2022-11-20T09:38:05;10.90;99.90
35603;DHT22;21725;50.836;4.368;2022-11-20T09:40:32;11.10;99.90
35603;DHT22;21725;50.836;4.368;2022-11-20T09:45:59;11.30;99.90
35603;DHT22;21725;50.836;4.368;2022-11-20T09:48:48;11.40;99.90
35603;DHT22;21725;50.836;4.368;2022-11-20T09:51:38;11.40;99.90
35603;DHT22;21725;50.836;4.368;2022-11-20T09:54:18;11.40;99.90
35603;DHT22;21725;50.836;4.368;2022-11-20T09:56:48;11.50;99.90
35603;DHT22;21725;50.836;4.368;2022-11-20T09:59:26;11.40;99.90
35603;DHT22;21725;50.836;4.368;2022-11-20T10:01:54;11.40;99.90
35603;DHT22;21725;50.836;4.368;2022-11-20T10:04:21;11.40;99.90
35603;DHT22;21725;50.836;4.368;2022-11-20T10:09:40;11.60;99.90
35603;DHT22;21725;50.836;4.368;2022-11-20T10:12:35;11.70;99.90
35603;DHT22;21725;50.836;4.368;2022-11-20T10:15:21;11.70;99.90
35603;DHT22;21725;50.836;4.368;2022-11-20T10:18:21;11.70;99.90
35603;DHT22;21725;50.836;4.368;2022-11-20T10:21:13;11.70;99.90
35603;DHT22;21725;50.836;4.368;2022-11-20T10:29:43;11.80;99.90
35603;DHT22;21725;50.836;4.368;2022-11-20T10:32:21;12.00;99.90
35603;DHT22;21725;50.836;4.368;2022-11-20T10:34:59;12.20;99.90
35603;DHT22;21725;50.836;4.368;2022-11-20T10:37:27;12.20;99.90
35603;DHT22;21725;50.836;4.368;2022-11-20T10:42:47;12.20;99.90
35603;DHT22;21725;50.836;4.368;2022-11-20T10:45:36;12.40;99.90
35603;DHT22;21725;50.836;4.368;2022-11-20T10:48:16;12.40;99.90
35603;DHT22;21725;50.836;4.368;2022-11-20T10:50:56;12.50;99.90
35603;DHT22;21725;50.836;4.368;2022-11-20T10:56:16;12.60;99.90
35603;DHT22;21725;50.836;4.368;2022-11-20T11:01:27;12.60;99.90
35603;DHT22;21725;50.836;4.368;2022-11-20T11:24:21;9.70;99.90
35603;DHT22;21725;50.836;4.368;2022-11-20T11:27:00;9.60;99.90
35603;DHT22;21725;50.836;4.368;2022-11-20T11:29:30;10.00;99.90
35603;DHT22;21725;50.836;4.368;2022-11-20T11:32:12;10.60;99.90
35603;DHT22;21725;50.836;4.368;2022-11-20T11:34:38;11.30;99.90
35603;DHT22;21725;50.836;4.368;2022-11-20T11:37:05;11.80;99.90
35603;DHT22;21725;50.836;4.368;2022-11-20T11:39:38;12.00;99.90
35603;DHT22;21725;50.836;4.368;2022-11-20T11:42:13;12.20;99.90
35603;DHT22;21725;50.836;4.368;2022-11-20T11:44:45;12.40;99.90
35603;DHT22;21725;50.836;4.368;2022-11-20T12:00:58;12.30;99.90
35603;DHT22;21725;50.836;4.368;2022-11-20T12:03:35;11.90;99.90
35603;DHT22;21725;50.836;4.368;2022-11-20T12:06:08;12.40;99.90
35603;DHT22;21725;50.836;4.368;2022-11-20T12:08:48;12.20;99.90
35603;DHT22;21725;50.836;4.368;2022-11-20T12:11:49;12.10;99.90
35603;DHT22;21725;50.836;4.368;2022-11-20T12:16:54;12.00;99.90
35603;DHT22;21725;50.836;4.368;2022-11-20T12:19:23;12.00;99.90
35603;DHT22;21725;50.836;4.368;2022-11-20T12:24:44;12.00;99.90
35603;DHT22;21725;50.836;4.368;2022-11-20T12:50:41;11.70;99.90
35603;DHT22;21725;50.836;4.368;2022-11-20T12:56:30;11.80;99.90
35603;DHT22;21725;50.836;4.368;2022-11-20T13:05:28;12.00;99.90
35603;DHT22;21725;50.836;4.368;2022-11-20T13:07:56;12.00;99.90
35603;DHT22;21725;50.836;4.368;2022-11-20T13:16:54;11.80;99.90
35603;DHT22;21725;50.836;4.368;2022-11-20T13:19:22;11.80;99.90
35603;DHT22;21725;50.836;4.368;2022-11-20T13:21:49;11.70;99.90
35603;DHT22;21725;50.836;4.368;2022-11-20T13:29:44;11.40;99.90
35603;DHT22;21725;50.836;4.368;2022-11-20T13:32:17;11.50;99.90
35603;DHT22;21725;50.836;4.368;2022-11-20T13:34:59;11.70;99.90
35603;DHT22;21725;50.836;4.368;2022-11-20T13:37:37;11.80;99.90
35603;DHT22;21725;50.836;4.368;2022-11-20T13:40:13;11.80;99.90
35603;DHT22;21725;50.836;4.368;2022-11-20T13:42:44;11.80;99.90
35603;DHT22;21725;50.836;4.368;2022-11-20T13:45:23;12.10;99.90
35603;DHT22;21725;50.836;4.368;2022-11-20T13:47:50;12.00;99.90
35603;DHT22;21725;50.836;4.368;2022-11-20T13:50:16;11.60;99.90
35603;DHT22;21725;50.836;4.368;2022-11-20T13:55:38;11.80;99.90
35603;DHT22;21725;50.836;4.368;2022-11-20T14:01:21;11.70;99.90
35603;DHT22;21725;50.836;4.368;2022-11-20T14:03:48;11.60;99.90
35603;DHT22;21725;50.836;4.368;2022-11-20T14:06:32;11.60;99.90
35603;DHT22;21725;50.836;4.368;2022-11-20T14:09:00;11.70;99.90
35603;DHT22;21725;50.836;4.368;2022-11-20T14:11:27;11.70;99.90
35603;DHT22;21725;50.836;4.368;2022-11-20T14:16:39;11.50;99.90
35603;DHT22;21725;50.836;4.368;2022-11-20T14:19:27;11.50;99.90
35603;DHT22;21725;50.836;4.368;2022-11-20T14:22:20;11.60;99.90
35603;DHT22;21725;50.836;4.368;2022-11-20T14:25:03;11.60;99.90
35603;DHT22;21725;50.836;4.368;2022-11-20T14:27:28;11.70;99.90
35603;DHT22;21725;50.836;4.368;2022-11-20T14:29:54;11.60;99.90
35603;DHT22;21725;50.836;4.368;2022-11-20T14:32:25;11.50;99.90
35603;DHT22;21725;50.836;4.368;2022-11-20T14:34:53;12.00;99.90
35603;DHT22;21725;50.836;4.368;2022-11-20T14:37:24;11.60;99.90
35603;DHT22;21725;50.836;4.368;2022-11-20T14:39:55;11.50;99.90
35603;DHT22;21725;50.836;4.368;2022-11-20T14:42:25;11.60;99.90
35603;DHT22;21725;50.836;4.368;2022-11-20T14:44:55;11.70;99.90
35603;DHT22;21725;50.836;4.368;2022-11-20T14:47:25;11.20;99.90
35603;DHT22;21725;50.836;4.368;2022-11-20T14:49:53;11.90;99.90
35603;DHT22;21725;50.836;4.368;2022-11-20T14:52:22;11.70;99.90
35603;DHT22;21725;50.836;4.368;2022-11-20T14:54:58;11.50;99.90
35603;DHT22;21725;50.836;4.368;2022-11-20T14:57:30;11.40;99.90
35603;DHT22;21725;50.836;4.368;2022-11-20T15:00:17;11.50;99.90
35603;DHT22;21725;50.836;4.368;2022-11-20T15:02:48;11.60;99.90
35603;DHT22;21725;50.836;4.368;2022-11-20T15:05:16;11.60;99.90
35603;DHT22;21725;50.836;4.368;2022-11-20T15:07:45;11.50;99.90
35603;DHT22;21725;50.836;4.368;2022-11-20T15:10:25;11.40;99.90
35603;DHT22;21725;50.836;4.368;2022-11-20T15:12:53;11.50;99.90
35603;DHT22;21725;50.836;4.368;2022-11-20T15:18:13;11.50;99.90
35603;DHT22;21725;50.836;4.368;2022-11-20T15:20:41;11.40;99.90
35603;DHT22;21725;50.836;4.368;2022-11-20T15:23:12;11.70;99.90
35603;DHT22;21725;50.836;4.368;2022-11-20T15:25:39;11.80;99.90
35603;DHT22;21725;50.836;4.368;2022-11-20T15:28:16;11.70;99.90
35603;DHT22;21725;50.836;4.368;2022-11-20T15:30:44;11.70;99.90
35603;DHT22;21725;50.836;4.368;2022-11-20T15:33:10;11.80;99.90
35603;DHT22;21725;50.836;4.368;2022-11-20T15:35:36;11.80;99.90
35603;DHT22;21725;50.836;4.368;2022-11-20T15:38:01;11.80;99.90
35603;DHT22;21725;50.836;4.368;2022-11-20T15:40:27;11.80;99.90
35603;DHT22;21725;50.836;4.368;2022-11-20T15:42:53;11.70;99.90
35603;DHT22;21725;50.836;4.368;2022-11-20T15:48:16;11.40;99.90
35603;DHT22;21725;50.836;4.368;2022-11-20T15:50:54;11.50;99.90
35603;DHT22;21725;50.836;4.368;2022-11-20T15:53:22;11.50;99.90
35603;DHT22;21725;50.836;4.368;2022-11-20T15:55:47;11.60;99.90
35603;DHT22;21725;50.836;4.368;2022-11-20T15:58:13;11.60;99.90
35603;DHT22;21725;50.836;4.368;2022-11-20T16:00:39;11.60;99.90
35603;DHT22;21725;50.836;4.368;2022-11-20T16:03:05;11.80;99.90
35603;DHT22;21725;50.836;4.368;2022-11-20T16:05:31;11.60;99.90
35603;DHT22;21725;50.836;4.368;2022-11-20T16:07:57;11.60;99.90
35603;DHT22;21725;50.836;4.368;2022-11-20T16:10:23;11.60;99.90
35603;DHT22;21725;50.836;4.368;2022-11-20T16:12:49;11.70;99.90
35603;DHT22;21725;50.836;4.368;2022-11-20T16:15:34;11.70;99.90
35603;DHT22;21725;50.836;4.368;2022-11-20T16:18:19;11.70;99.90
35603;DHT22;21725;50.836;4.368;2022-11-20T16:20:50;11.70;99.90
35603;DHT22;21725;50.836;4.368;2022-11-20T16:23:17;11.70;99.90
35603;DHT22;21725;50.836;4.368;2022-11-20T16:25:43;11.70;99.90
35603;DHT22;21725;50.836;4.368;2022-11-20T16:28:10;11.70;99.90
35603;DHT22;21725;50.836;4.368;2022-11-20T16:30:37;11.60;99.90
35603;DHT22;21725;50.836;4.368;2022-11-20T16:33:03;11.60;99.90
35603;DHT22;21725;50.836;4.368;2022-11-20T16:35:30;11.80;99.90
35603;DHT22;21725;50.836;4.368;2022-11-20T16:37:57;11.60;99.90
35603;DHT22;21725;50.836;4.368;2022-11-20T16:40:24;12.00;99.90
35603;DHT22;21725;50.836;4.368;2022-11-20T16:42:50;11.60;99.90
35603;DHT22;21725;50.836;4.368;2022-11-20T16:45:16;12.00;99.90
35603;DHT22;21725;50.836;4.368;2022-11-20T16:47:45;11.80;99.90
35603;DHT22;21725;50.836;4.368;2022-11-20T16:50:11;11.80;99.90
35603;DHT22;21725;50.836;4.368;2022-11-20T16:52:37;11.90;99.90
35603;DHT22;21725;50.836;4.368;2022-11-20T16:55:03;11.90;99.90
35603;DHT22;21725;50.836;4.368;2022-11-20T16:57:29;11.80;99.90
35603;DHT22;21725;50.836;4.368;2022-11-20T16:59:56;11.90;99.90
35603;DHT22;21725;50.836;4.368;2022-11-20T17:24:23;9.40;99.90
35603;DHT22;21725;50.836;4.368;2022-11-20T17:26:49;10.10;99.90
35603;DHT22;21725;50.836;4.368;2022-11-20T17:29:18;9.90;99.90
35603;DHT22;21725;50.836;4.368;2022-11-20T17:31:49;10.50;99.90
35603;DHT22;21725;50.836;4.368;2022-11-20T17:34:18;11.00;99.90
35603;DHT22;21725;50.836;4.368;2022-11-20T17:36:44;11.50;99.90
35603;DHT22;21725;50.836;4.368;2022-11-20T17:39:12;11.80;99.90
35603;DHT22;21725;50.836;4.368;2022-11-20T17:41:38;11.80;99.90
35603;DHT22;21725;50.836;4.368;2022-11-20T17:44:04;11.90;99.90
35603;DHT22;21725;50.836;4.368;2022-11-20T17:46:31;11.80;99.90
35603;DHT22;21725;50.836;4.368;2022-11-20T17:48:58;12.00;99.90
35603;DHT22;21725;50.836;4.368;2022-11-20T17:51:29;11.90;99.90
35603;DHT22;21725;50.836;4.368;2022-11-20T17:54:00;12.00;99.90
35603;DHT22;21725;50.836;4.368;2022-11-20T17:56:33;12.00;99.90
35603;DHT22;21725;50.836;4.368;2022-11-20T17:59:18;12.20;99.90
35603;DHT22;21725;50.836;4.368;2022-11-20T18:01:44;12.10;99.90
35603;DHT22;21725;50.836;4.368;2022-11-20T18:04:10;12.30;99.90
35603;DHT22;21725;50.836;4.368;2022-11-20T18:06:37;12.10;99.90
35603;DHT22;21725;50.836;4.368;2022-11-20T18:09:04;12.00;99.90
35603;DHT22;21725;50.836;4.368;2022-11-20T18:11:35;11.70;99.90
35603;DHT22;21725;50.836;4.368;2022-11-20T18:14:03;11.60;99.90
35603;DHT22;21725;50.836;4.368;2022-11-20T18:16:52;11.50;99.90
35603;DHT22;21725;50.836;4.368;2022-11-20T18:19:21;11.70;99.90
35603;DHT22;21725;50.836;4.368;2022-11-20T18:21:47;11.50;99.90
35603;DHT22;21725;50.836;4.368;2022-11-20T18:24:13;11.30;99.90
35603;DHT22;21725;50.836;4.368;2022-11-20T18:26:39;11.40;99.90
35603;DHT22;21725;50.836;4.368;2022-11-20T18:29:04;11.40;99.90
35603;DHT22;21725;50.836;4.368;2022-11-20T18:31:30;11.40;99.90
35603;DHT22;21725;50.836;4.368;2022-11-20T18:33:56;11.40;99.90
35603;DHT22;21725;50.836;4.368;2022-11-20T18:36:24;11.60;99.90